Coquitlam, Canada
Current Conditions -  °F | °C
As of 2:00 PM on Tuesday 21 Oct 2014 (Local Time) from CYVR Reporting Station
Overcast Overcast  
Wind Chill: 57°   Ceiling: 6900
Heat Index: 57°   Visibility: 15mi
Dew Point: 52°   Wind: 16mph
Humidity: 82%   Direction: 120°ESE
Pressure: 29.83"   Gusts: 23mph
Location:  49.27°N, 122.78°W
Report Text: CYVR 212100Z 12014G20KT 15SM FEW008 FEW013 BKN069 OVC077 14/11 A2983 RMK CF1SC1AC5AC1 SLP102
Loading
Personal Weather Stations






























Interactive Weather Map
Tropical Storm Tracking
New forecast layout! Learn more

10-Day Weather Forecast

Advertisements
Track Severe Weather on mobile